sensor_id;sensor_type;location;lat;lon;timestamp;P1;durP1;ratioP1;P2;durP2;ratioP2
52268;SDS011;38224;50.950;4.100;2023-05-07T00:00:25;19.77;;;6.30;;
52268;SDS011;38224;50.950;4.100;2023-05-07T00:02:50;17.00;;;7.03;;
52268;SDS011;38224;50.950;4.100;2023-05-07T00:05:16;21.60;;;7.67;;
52268;SDS011;38224;50.950;4.100;2023-05-07T00:07:41;19.40;;;6.18;;
52268;SDS011;38224;50.950;4.100;2023-05-07T00:10:06;18.90;;;6.95;;
52268;SDS011;38224;50.950;4.100;2023-05-07T00:12:32;19.83;;;6.60;;
52268;SDS011;38224;50.950;4.100;2023-05-07T00:15:03;22.05;;;6.85;;
52268;SDS011;38224;50.950;4.100;2023-05-07T00:17:29;19.33;;;6.18;;
52268;SDS011;38224;50.950;4.100;2023-05-07T00:19:54;19.60;;;7.15;;
52268;SDS011;38224;50.950;4.100;2023-05-07T00:22:20;14.98;;;6.30;;
52268;SDS011;38224;50.950;4.100;2023-05-07T00:24:46;16.13;;;5.93;;
52268;SDS011;38224;50.950;4.100;2023-05-07T00:27:11;15.93;;;6.30;;
52268;SDS011;38224;50.950;4.100;2023-05-07T00:29:36;21.30;;;6.47;;
52268;SDS011;38224;50.950;4.100;2023-05-07T00:32:02;17.02;;;6.03;;
52268;SDS011;38224;50.950;4.100;2023-05-07T00:34:27;21.47;;;5.87;;
52268;SDS011;38224;50.950;4.100;2023-05-07T00:36:52;15.45;;;5.28;;
52268;SDS011;38224;50.950;4.100;2023-05-07T00:39:18;14.43;;;6.55;;
52268;SDS011;38224;50.950;4.100;2023-05-07T00:41:43;19.90;;;6.63;;
52268;SDS011;38224;50.950;4.100;2023-05-07T00:44:08;16.27;;;7.40;;
52268;SDS011;38224;50.950;4.100;2023-05-07T00:46:34;20.70;;;6.90;;
52268;SDS011;38224;50.950;4.100;2023-05-07T00:48:59;15.10;;;6.10;;
52268;SDS011;38224;50.950;4.100;2023-05-07T00:51:25;20.45;;;6.50;;
52268;SDS011;38224;50.950;4.100;2023-05-07T00:53:51;22.90;;;7.22;;
52268;SDS011;38224;50.950;4.100;2023-05-07T00:56:17;12.73;;;5.78;;
52268;SDS011;38224;50.950;4.100;2023-05-07T00:58:42;18.90;;;6.10;;
52268;SDS011;38224;50.950;4.100;2023-05-07T01:01:08;18.63;;;6.90;;
52268;SDS011;38224;50.950;4.100;2023-05-07T01:03:33;24.70;;;7.15;;
52268;SDS011;38224;50.950;4.100;2023-05-07T01:05:58;18.65;;;7.47;;
52268;SDS011;38224;50.950;4.100;2023-05-07T01:08:24;20.98;;;7.00;;
52268;SDS011;38224;50.950;4.100;2023-05-07T01:10:51;19.60;;;7.00;;
52268;SDS011;38224;50.950;4.100;2023-05-07T01:13:17;22.80;;;6.07;;
52268;SDS011;38224;50.950;4.100;2023-05-07T01:15:43;14.98;;;6.90;;
52268;SDS011;38224;50.950;4.100;2023-05-07T01:18:08;20.70;;;7.88;;
52268;SDS011;38224;50.950;4.100;2023-05-07T01:20:34;19.65;;;6.35;;
52268;SDS011;38224;50.950;4.100;2023-05-07T01:22:59;22.50;;;6.57;;
52268;SDS011;38224;50.950;4.100;2023-05-07T01:25:25;22.90;;;7.75;;
52268;SDS011;38224;50.950;4.100;2023-05-07T01:27:50;21.08;;;7.30;;
52268;SDS011;38224;50.950;4.100;2023-05-07T01:30:16;20.47;;;6.73;;
52268;SDS011;38224;50.950;4.100;2023-05-07T01:35:07;15.60;;;6.50;;
52268;SDS011;38224;50.950;4.100;2023-05-07T01:37:34;16.52;;;5.72;;
52268;SDS011;38224;50.950;4.100;2023-05-07T01:40:00;18.25;;;6.63;;
52268;SDS011;38224;50.950;4.100;2023-05-07T01:42:26;19.63;;;6.53;;
52268;SDS011;38224;50.950;4.100;2023-05-07T01:44:51;18.25;;;6.95;;
52268;SDS011;38224;50.950;4.100;2023-05-07T01:47:20;18.80;;;6.93;;
52268;SDS011;38224;50.950;4.100;2023-05-07T01:49:45;20.42;;;6.85;;
52268;SDS011;38224;50.950;4.100;2023-05-07T01:52:11;20.17;;;7.90;;
52268;SDS011;38224;50.950;4.100;2023-05-07T01:54:36;15.15;;;7.57;;
52268;SDS011;38224;50.950;4.100;2023-05-07T01:57:02;21.73;;;7.63;;
52268;SDS011;38224;50.950;4.100;2023-05-07T01:59:27;21.40;;;8.02;;
52268;SDS011;38224;50.950;4.100;2023-05-07T02:01:53;18.47;;;8.17;;
52268;SDS011;38224;50.950;4.100;2023-05-07T02:04:18;23.48;;;8.93;;
52268;SDS011;38224;50.950;4.100;2023-05-07T02:06:43;19.90;;;7.72;;
52268;SDS011;38224;50.950;4.100;2023-05-07T02:09:08;23.23;;;7.75;;
52268;SDS011;38224;50.950;4.100;2023-05-07T02:11:34;20.08;;;7.32;;
52268;SDS011;38224;50.950;4.100;2023-05-07T02:13:59;18.40;;;7.13;;
52268;SDS011;38224;50.950;4.100;2023-05-07T02:16:25;17.60;;;7.10;;
52268;SDS011;38224;50.950;4.100;2023-05-07T02:18:50;12.80;;;6.50;;
52268;SDS011;38224;50.950;4.100;2023-05-07T02:21:18;20.35;;;6.97;;
52268;SDS011;38224;50.950;4.100;2023-05-07T02:23:44;15.40;;;6.72;;
52268;SDS011;38224;50.950;4.100;2023-05-07T02:26:10;14.80;;;6.07;;
52268;SDS011;38224;50.950;4.100;2023-05-07T02:28:36;22.27;;;7.13;;
52268;SDS011;38224;50.950;4.100;2023-05-07T02:31:04;20.85;;;7.82;;
52268;SDS011;38224;50.950;4.100;2023-05-07T02:33:29;16.42;;;6.90;;
52268;SDS011;38224;50.950;4.100;2023-05-07T02:35:55;21.75;;;8.00;;
52268;SDS011;38224;50.950;4.100;2023-05-07T02:38:21;20.05;;;6.90;;
52268;SDS011;38224;50.950;4.100;2023-05-07T02:40:46;17.05;;;7.30;;
52268;SDS011;38224;50.950;4.100;2023-05-07T02:43:12;16.60;;;7.20;;
52268;SDS011;38224;50.950;4.100;2023-05-07T02:45:37;16.33;;;7.63;;
52268;SDS011;38224;50.950;4.100;2023-05-07T02:48:02;14.68;;;6.57;;
52268;SDS011;38224;50.950;4.100;2023-05-07T02:50:28;17.92;;;8.18;;
52268;SDS011;38224;50.950;4.100;2023-05-07T02:52:53;19.53;;;7.53;;
52268;SDS011;38224;50.950;4.100;2023-05-07T02:55:18;13.02;;;6.60;;
52268;SDS011;38224;50.950;4.100;2023-05-07T02:57:44;17.90;;;7.32;;
52268;SDS011;38224;50.950;4.100;2023-05-07T03:00:10;24.17;;;7.72;;
52268;SDS011;38224;50.950;4.100;2023-05-07T03:02:35;15.90;;;6.80;;
52268;SDS011;38224;50.950;4.100;2023-05-07T03:05:01;18.48;;;7.43;;
52268;SDS011;38224;50.950;4.100;2023-05-07T03:07:26;14.93;;;6.75;;
52268;SDS011;38224;50.950;4.100;2023-05-07T03:09:51;17.58;;;7.68;;
52268;SDS011;38224;50.950;4.100;2023-05-07T03:12:17;15.70;;;6.38;;
52268;SDS011;38224;50.950;4.100;2023-05-07T03:14:42;14.93;;;6.93;;
52268;SDS011;38224;50.950;4.100;2023-05-07T03:17:07;18.23;;;6.68;;
52268;SDS011;38224;50.950;4.100;2023-05-07T03:19:33;16.55;;;7.28;;
52268;SDS011;38224;50.950;4.100;2023-05-07T03:21:58;14.73;;;6.67;;
52268;SDS011;38224;50.950;4.100;2023-05-07T03:24:23;16.90;;;6.88;;
52268;SDS011;38224;50.950;4.100;2023-05-07T03:26:49;15.90;;;6.25;;
52268;SDS011;38224;50.950;4.100;2023-05-07T03:29:14;17.50;;;7.60;;
52268;SDS011;38224;50.950;4.100;2023-05-07T03:31:40;18.00;;;7.25;;
52268;SDS011;38224;50.950;4.100;2023-05-07T03:34:06;15.87;;;6.57;;
52268;SDS011;38224;50.950;4.100;2023-05-07T03:36:31;17.60;;;6.70;;
52268;SDS011;38224;50.950;4.100;2023-05-07T03:38:56;12.50;;;6.60;;
52268;SDS011;38224;50.950;4.100;2023-05-07T03:41:21;18.73;;;7.20;;
52268;SDS011;38224;50.950;4.100;2023-05-07T03:43:47;17.02;;;7.63;;
52268;SDS011;38224;50.950;4.100;2023-05-07T03:46:12;20.77;;;8.20;;
52268;SDS011;38224;50.950;4.100;2023-05-07T03:48:37;21.00;;;8.27;;
52268;SDS011;38224;50.950;4.100;2023-05-07T03:51:02;11.77;;;7.32;;
52268;SDS011;38224;50.950;4.100;2023-05-07T03:53:28;14.88;;;7.63;;
52268;SDS011;38224;50.950;4.100;2023-05-07T03:55:53;21.30;;;8.50;;
52268;SDS011;38224;50.950;4.100;2023-05-07T03:58:21;20.83;;;8.77;;
52268;SDS011;38224;50.950;4.100;2023-05-07T04:00:46;24.70;;;9.02;;
52268;SDS011;38224;50.950;4.100;2023-05-07T04:03:12;17.73;;;8.27;;
52268;SDS011;38224;50.950;4.100;2023-05-07T04:05:37;20.57;;;8.57;;
52268;SDS011;38224;50.950;4.100;2023-05-07T04:08:02;15.77;;;8.07;;
52268;SDS011;38224;50.950;4.100;2023-05-07T04:10:29;14.27;;;7.57;;
52268;SDS011;38224;50.950;4.100;2023-05-07T04:12:54;18.30;;;7.57;;
52268;SDS011;38224;50.950;4.100;2023-05-07T04:15:19;15.33;;;7.47;;
52268;SDS011;38224;50.950;4.100;2023-05-07T04:17:45;18.65;;;8.27;;
52268;SDS011;38224;50.950;4.100;2023-05-07T04:20:10;18.40;;;7.50;;
52268;SDS011;38224;50.950;4.100;2023-05-07T04:22:36;16.23;;;8.00;;
52268;SDS011;38224;50.950;4.100;2023-05-07T04:25:01;18.15;;;8.13;;
52268;SDS011;38224;50.950;4.100;2023-05-07T04:27:27;19.85;;;8.63;;
52268;SDS011;38224;50.950;4.100;2023-05-07T04:29:53;16.08;;;7.85;;
52268;SDS011;38224;50.950;4.100;2023-05-07T04:32:20;27.33;;;8.70;;
52268;SDS011;38224;50.950;4.100;2023-05-07T04:34:46;21.00;;;8.45;;
52268;SDS011;38224;50.950;4.100;2023-05-07T04:37:11;17.52;;;8.18;;
52268;SDS011;38224;50.950;4.100;2023-05-07T04:39:37;19.02;;;7.53;;
52268;SDS011;38224;50.950;4.100;2023-05-07T04:42:02;13.18;;;7.45;;
52268;SDS011;38224;50.950;4.100;2023-05-07T04:44:28;15.52;;;8.13;;
52268;SDS011;38224;50.950;4.100;2023-05-07T04:46:55;17.45;;;7.80;;
52268;SDS011;38224;50.950;4.100;2023-05-07T04:49:21;16.95;;;7.93;;
52268;SDS011;38224;50.950;4.100;2023-05-07T04:51:46;14.63;;;7.30;;
52268;SDS011;38224;50.950;4.100;2023-05-07T04:54:11;17.67;;;8.43;;
52268;SDS011;38224;50.950;4.100;2023-05-07T04:56:37;17.73;;;7.10;;
52268;SDS011;38224;50.950;4.100;2023-05-07T04:59:02;16.23;;;7.60;;
52268;SDS011;38224;50.950;4.100;2023-05-07T05:01:27;17.73;;;7.70;;
52268;SDS011;38224;50.950;4.100;2023-05-07T05:03:52;12.80;;;7.55;;
52268;SDS011;38224;50.950;4.100;2023-05-07T05:06:18;15.70;;;7.63;;
52268;SDS011;38224;50.950;4.100;2023-05-07T05:08:43;18.30;;;8.07;;
52268;SDS011;38224;50.950;4.100;2023-05-07T05:11:08;13.53;;;7.03;;
52268;SDS011;38224;50.950;4.100;2023-05-07T05:13:33;13.73;;;8.03;;
52268;SDS011;38224;50.950;4.100;2023-05-07T05:15:59;17.58;;;7.47;;
52268;SDS011;38224;50.950;4.100;2023-05-07T05:18:24;16.05;;;7.18;;
52268;SDS011;38224;50.950;4.100;2023-05-07T05:20:51;17.35;;;6.97;;
52268;SDS011;38224;50.950;4.100;2023-05-07T05:23:16;16.90;;;7.63;;
52268;SDS011;38224;50.950;4.100;2023-05-07T05:25:41;22.33;;;7.37;;
52268;SDS011;38224;50.950;4.100;2023-05-07T05:28:07;22.20;;;7.60;;
52268;SDS011;38224;50.950;4.100;2023-05-07T05:30:32;17.65;;;7.07;;
52268;SDS011;38224;50.950;4.100;2023-05-07T05:32:57;16.58;;;6.90;;
52268;SDS011;38224;50.950;4.100;2023-05-07T05:35:23;12.63;;;6.60;;
52268;SDS011;38224;50.950;4.100;2023-05-07T05:37:48;14.83;;;6.87;;
52268;SDS011;38224;50.950;4.100;2023-05-07T05:40:13;17.88;;;7.18;;
52268;SDS011;38224;50.950;4.100;2023-05-07T05:42:38;15.13;;;7.50;;
52268;SDS011;38224;50.950;4.100;2023-05-07T05:45:04;17.15;;;6.70;;
52268;SDS011;38224;50.950;4.100;2023-05-07T05:47:30;21.55;;;7.30;;
52268;SDS011;38224;50.950;4.100;2023-05-07T05:49:56;15.48;;;6.72;;
52268;SDS011;38224;50.950;4.100;2023-05-07T05:52:21;17.40;;;6.88;;
52268;SDS011;38224;50.950;4.100;2023-05-07T05:54:48;16.08;;;6.90;;
52268;SDS011;38224;50.950;4.100;2023-05-07T05:57:14;15.07;;;7.00;;
52268;SDS011;38224;50.950;4.100;2023-05-07T05:59:40;13.80;;;6.78;;
52268;SDS011;38224;50.950;4.100;2023-05-07T06:02:05;19.17;;;7.15;;
52268;SDS011;38224;50.950;4.100;2023-05-07T06:04:31;15.75;;;6.80;;
52268;SDS011;38224;50.950;4.100;2023-05-07T06:06:57;21.13;;;7.45;;
52268;SDS011;38224;50.950;4.100;2023-05-07T06:09:22;23.25;;;8.50;;
52268;SDS011;38224;50.950;4.100;2023-05-07T06:11:47;17.93;;;7.07;;
52268;SDS011;38224;50.950;4.100;2023-05-07T06:14:13;17.98;;;7.20;;
52268;SDS011;38224;50.950;4.100;2023-05-07T06:16:38;22.07;;;7.43;;
52268;SDS011;38224;50.950;4.100;2023-05-07T06:19:03;13.47;;;6.67;;
52268;SDS011;38224;50.950;4.100;2023-05-07T06:21:28;12.33;;;5.97;;
52268;SDS011;38224;50.950;4.100;2023-05-07T06:23:54;22.27;;;6.95;;
52268;SDS011;38224;50.950;4.100;2023-05-07T06:26:20;14.68;;;6.32;;
52268;SDS011;38224;50.950;4.100;2023-05-07T06:28:48;19.45;;;6.80;;
52268;SDS011;38224;50.950;4.100;2023-05-07T06:31:14;15.57;;;7.05;;
52268;SDS011;38224;50.950;4.100;2023-05-07T06:33:40;13.80;;;6.57;;
52268;SDS011;38224;50.950;4.100;2023-05-07T06:36:05;22.52;;;9.60;;
52268;SDS011;38224;50.950;4.100;2023-05-07T06:38:31;18.80;;;7.38;;
52268;SDS011;38224;50.950;4.100;2023-05-07T06:40:56;17.50;;;7.28;;
52268;SDS011;38224;50.950;4.100;2023-05-07T06:43:22;18.00;;;7.95;;
52268;SDS011;38224;50.950;4.100;2023-05-07T06:45:47;16.70;;;7.00;;
52268;SDS011;38224;50.950;4.100;2023-05-07T06:48:15;16.52;;;7.75;;
52268;SDS011;38224;50.950;4.100;2023-05-07T06:50:41;20.27;;;8.07;;
52268;SDS011;38224;50.950;4.100;2023-05-07T06:53:06;16.60;;;7.22;;
52268;SDS011;38224;50.950;4.100;2023-05-07T06:55:32;21.70;;;7.57;;
52268;SDS011;38224;50.950;4.100;2023-05-07T06:58:00;17.58;;;7.47;;
52268;SDS011;38224;50.950;4.100;2023-05-07T07:00:29;18.52;;;7.53;;
52268;SDS011;38224;50.950;4.100;2023-05-07T07:02:54;16.92;;;7.25;;
52268;SDS011;38224;50.950;4.100;2023-05-07T07:05:20;18.20;;;7.25;;
52268;SDS011;38224;50.950;4.100;2023-05-07T07:07:45;16.83;;;7.57;;
52268;SDS011;38224;50.950;4.100;2023-05-07T07:10:17;14.93;;;7.38;;
52268;SDS011;38224;50.950;4.100;2023-05-07T07:12:42;20.65;;;7.25;;
52268;SDS011;38224;50.950;4.100;2023-05-07T07:15:09;18.27;;;7.55;;
52268;SDS011;38224;50.950;4.100;2023-05-07T07:17:34;14.30;;;7.82;;
52268;SDS011;38224;50.950;4.100;2023-05-07T07:20:00;16.20;;;6.97;;
52268;SDS011;38224;50.950;4.100;2023-05-07T07:22:25;11.43;;;7.10;;
52268;SDS011;38224;50.950;4.100;2023-05-07T07:24:50;16.80;;;6.80;;
52268;SDS011;38224;50.950;4.100;2023-05-07T07:27:16;18.17;;;7.80;;
52268;SDS011;38224;50.950;4.100;2023-05-07T07:29:41;16.45;;;6.85;;
52268;SDS011;38224;50.950;4.100;2023-05-07T07:32:06;12.17;;;5.87;;
52268;SDS011;38224;50.950;4.100;2023-05-07T07:34:32;13.32;;;6.43;;
52268;SDS011;38224;50.950;4.100;2023-05-07T07:36:57;12.85;;;5.40;;
52268;SDS011;38224;50.950;4.100;2023-05-07T07:39:22;15.30;;;6.17;;
52268;SDS011;38224;50.950;4.100;2023-05-07T07:41:47;12.73;;;5.53;;
52268;SDS011;38224;50.950;4.100;2023-05-07T07:44:13;15.87;;;5.50;;
52268;SDS011;38224;50.950;4.100;2023-05-07T07:46:38;12.65;;;5.57;;
52268;SDS011;38224;50.950;4.100;2023-05-07T07:49:03;11.57;;;5.07;;
52268;SDS011;38224;50.950;4.100;2023-05-07T07:51:28;13.73;;;5.47;;
52268;SDS011;38224;50.950;4.100;2023-05-07T07:53:54;10.50;;;4.90;;
52268;SDS011;38224;50.950;4.100;2023-05-07T07:56:19;14.23;;;5.87;;
52268;SDS011;38224;50.950;4.100;2023-05-07T07:58:45;13.48;;;5.82;;
52268;SDS011;38224;50.950;4.100;2023-05-07T08:01:10;16.00;;;5.97;;
52268;SDS011;38224;50.950;4.100;2023-05-07T08:03:37;12.75;;;6.10;;
52268;SDS011;38224;50.950;4.100;2023-05-07T08:06:03;14.85;;;5.75;;
52268;SDS011;38224;50.950;4.100;2023-05-07T08:08:28;11.18;;;5.53;;
52268;SDS011;38224;50.950;4.100;2023-05-07T08:10:53;9.53;;;5.00;;
52268;SDS011;38224;50.950;4.100;2023-05-07T08:13:19;15.65;;;6.63;;
52268;SDS011;38224;50.950;4.100;2023-05-07T08:15:44;13.07;;;6.90;;
52268;SDS011;38224;50.950;4.100;2023-05-07T08:18:09;14.02;;;5.90;;
52268;SDS011;38224;50.950;4.100;2023-05-07T08:20:35;18.23;;;6.90;;
52268;SDS011;38224;50.950;4.100;2023-05-07T08:23:04;13.57;;;6.30;;
52268;SDS011;38224;50.950;4.100;2023-05-07T08:25:32;13.55;;;7.20;;
52268;SDS011;38224;50.950;4.100;2023-05-07T08:28:00;16.40;;;6.43;;
52268;SDS011;38224;50.950;4.100;2023-05-07T08:30:26;11.82;;;5.88;;
52268;SDS011;38224;50.950;4.100;2023-05-07T08:32:51;15.07;;;7.20;;
52268;SDS011;38224;50.950;4.100;2023-05-07T08:35:16;12.47;;;6.20;;
52268;SDS011;38224;50.950;4.100;2023-05-07T08:37:42;14.98;;;6.07;;
52268;SDS011;38224;50.950;4.100;2023-05-07T08:40:07;13.30;;;6.28;;
52268;SDS011;38224;50.950;4.100;2023-05-07T08:42:34;14.98;;;6.50;;
52268;SDS011;38224;50.950;4.100;2023-05-07T08:45:00;13.82;;;6.15;;
52268;SDS011;38224;50.950;4.100;2023-05-07T08:47:29;12.15;;;5.45;;
52268;SDS011;38224;50.950;4.100;2023-05-07T08:49:55;16.45;;;6.43;;
52268;SDS011;38224;50.950;4.100;2023-05-07T08:52:21;16.77;;;7.63;;
52268;SDS011;38224;50.950;4.100;2023-05-07T08:54:46;14.63;;;6.63;;
52268;SDS011;38224;50.950;4.100;2023-05-07T08:57:12;13.48;;;5.82;;
52268;SDS011;38224;50.950;4.100;2023-05-07T08:59:39;11.38;;;6.65;;
52268;SDS011;38224;50.950;4.100;2023-05-07T09:02:05;14.30;;;5.45;;
52268;SDS011;38224;50.950;4.100;2023-05-07T09:04:32;14.25;;;6.35;;
52268;SDS011;38224;50.950;4.100;2023-05-07T09:06:57;23.77;;;6.80;;
52268;SDS011;38224;50.950;4.100;2023-05-07T09:09:28;9.88;;;5.85;;
52268;SDS011;38224;50.950;4.100;2023-05-07T09:11:57;14.80;;;6.30;;
52268;SDS011;38224;50.950;4.100;2023-05-07T09:14:24;13.32;;;6.13;;
52268;SDS011;38224;50.950;4.100;2023-05-07T09:16:51;11.55;;;5.93;;
52268;SDS011;38224;50.950;4.100;2023-05-07T09:19:18;10.10;;;5.35;;
52268;SDS011;38224;50.950;4.100;2023-05-07T09:21:47;13.25;;;5.35;;
52268;SDS011;38224;50.950;4.100;2023-05-07T09:24:14;13.30;;;5.35;;
52268;SDS011;38224;50.950;4.100;2023-05-07T09:26:40;12.85;;;4.90;;
52268;SDS011;38224;50.950;4.100;2023-05-07T09:29:06;10.60;;;4.47;;
52268;SDS011;38224;50.950;4.100;2023-05-07T09:31:31;15.65;;;4.72;;
52268;SDS011;38224;50.950;4.100;2023-05-07T09:33:57;9.20;;;4.53;;
52268;SDS011;38224;50.950;4.100;2023-05-07T09:36:22;8.93;;;3.80;;
52268;SDS011;38224;50.950;4.100;2023-05-07T09:38:47;13.63;;;4.80;;
52268;SDS011;38224;50.950;4.100;2023-05-07T09:41:14;8.70;;;3.72;;
52268;SDS011;38224;50.950;4.100;2023-05-07T09:43:40;11.20;;;4.32;;
52268;SDS011;38224;50.950;4.100;2023-05-07T09:46:11;9.18;;;3.70;;
52268;SDS011;38224;50.950;4.100;2023-05-07T09:48:37;8.82;;;4.28;;
52268;SDS011;38224;50.950;4.100;2023-05-07T09:51:03;12.75;;;4.68;;
52268;SDS011;38224;50.950;4.100;2023-05-07T09:53:29;12.80;;;4.05;;
52268;SDS011;38224;50.950;4.100;2023-05-07T09:55:55;7.90;;;3.67;;
52268;SDS011;38224;50.950;4.100;2023-05-07T09:58:21;7.47;;;3.53;;
52268;SDS011;38224;50.950;4.100;2023-05-07T10:00:48;7.72;;;3.40;;
52268;SDS011;38224;50.950;4.100;2023-05-07T10:03:14;6.40;;;3.38;;
52268;SDS011;38224;50.950;4.100;2023-05-07T10:05:40;10.50;;;3.17;;
52268;SDS011;38224;50.950;4.100;2023-05-07T10:08:06;7.30;;;3.28;;
52268;SDS011;38224;50.950;4.100;2023-05-07T10:10:32;10.75;;;4.78;;
52268;SDS011;38224;50.950;4.100;2023-05-07T10:12:58;10.35;;;3.83;;
52268;SDS011;38224;50.950;4.100;2023-05-07T10:15:24;9.23;;;4.90;;
52268;SDS011;38224;50.950;4.100;2023-05-07T10:17:52;10.40;;;5.43;;
52268;SDS011;38224;50.950;4.100;2023-05-07T10:20:18;9.75;;;4.90;;
52268;SDS011;38224;50.950;4.100;2023-05-07T10:22:47;10.38;;;5.00;;
52268;SDS011;38224;50.950;4.100;2023-05-07T10:25:23;8.52;;;5.78;;
52268;SDS011;38224;50.950;4.100;2023-05-07T10:27:50;16.35;;;6.15;;
52268;SDS011;38224;50.950;4.100;2023-05-07T10:33:01;12.95;;;6.25;;
52268;SDS011;38224;50.950;4.100;2023-05-07T10:35:31;12.82;;;6.78;;
52268;SDS011;38224;50.950;4.100;2023-05-07T10:37:57;10.98;;;7.53;;
52268;SDS011;38224;50.950;4.100;2023-05-07T10:40:23;13.60;;;6.93;;
52268;SDS011;38224;50.950;4.100;2023-05-07T10:45:24;9.82;;;6.63;;
52268;SDS011;38224;50.950;4.100;2023-05-07T10:50:34;14.68;;;5.95;;
52268;SDS011;38224;50.950;4.100;2023-05-07T10:56:26;11.15;;;6.30;;
52268;SDS011;38224;50.950;4.100;2023-05-07T10:58:32;12.30;;;5.90;;
52268;SDS011;38224;50.950;4.100;2023-05-07T11:01:00;8.40;;;5.78;;
52268;SDS011;38224;50.950;4.100;2023-05-07T11:03:26;8.85;;;4.68;;
52268;SDS011;38224;50.950;4.100;2023-05-07T11:08:52;6.40;;;3.88;;
52268;SDS011;38224;50.950;4.100;2023-05-07T11:11:18;8.07;;;4.43;;
52268;SDS011;38224;50.950;4.100;2023-05-07T11:13:45;9.95;;;4.60;;
52268;SDS011;38224;50.950;4.100;2023-05-07T11:16:20;9.82;;;4.68;;
52268;SDS011;38224;50.950;4.100;2023-05-07T11:18:46;10.15;;;5.32;;
52268;SDS011;38224;50.950;4.100;2023-05-07T11:21:13;6.70;;;4.15;;
52268;SDS011;38224;50.950;4.100;2023-05-07T11:26:09;10.57;;;5.82;;
52268;SDS011;38224;50.950;4.100;2023-05-07T11:28:41;9.77;;;5.88;;
52268;SDS011;38224;50.950;4.100;2023-05-07T11:31:06;10.45;;;5.50;;
52268;SDS011;38224;50.950;4.100;2023-05-07T11:33:32;7.25;;;5.22;;
52268;SDS011;38224;50.950;4.100;2023-05-07T11:35:57;8.52;;;5.53;;
52268;SDS011;38224;50.950;4.100;2023-05-07T11:38:24;9.32;;;5.50;;
52268;SDS011;38224;50.950;4.100;2023-05-07T11:40:55;7.60;;;5.18;;
52268;SDS011;38224;50.950;4.100;2023-05-07T11:43:21;16.05;;;6.50;;
52268;SDS011;38224;50.950;4.100;2023-05-07T11:45:46;8.65;;;5.00;;
52268;SDS011;38224;50.950;4.100;2023-05-07T11:48:12;9.48;;;5.22;;
52268;SDS011;38224;50.950;4.100;2023-05-07T11:50:51;7.70;;;4.40;;
52268;SDS011;38224;50.950;4.100;2023-05-07T11:53:17;7.55;;;4.20;;
52268;SDS011;38224;50.950;4.100;2023-05-07T11:55:43;9.30;;;4.88;;
52268;SDS011;38224;50.950;4.100;2023-05-07T11:58:09;10.68;;;4.40;;
52268;SDS011;38224;50.950;4.100;2023-05-07T12:00:35;6.40;;;3.72;;
52268;SDS011;38224;50.950;4.100;2023-05-07T12:03:04;5.85;;;3.20;;
52268;SDS011;38224;50.950;4.100;2023-05-07T12:05:29;4.35;;;2.78;;
52268;SDS011;38224;50.950;4.100;2023-05-07T12:07:57;4.30;;;3.15;;
52268;SDS011;38224;50.950;4.100;2023-05-07T12:10:23;5.82;;;3.13;;
52268;SDS011;38224;50.950;4.100;2023-05-07T12:12:49;6.93;;;2.97;;
52268;SDS011;38224;50.950;4.100;2023-05-07T12:15:15;4.80;;;2.58;;
52268;SDS011;38224;50.950;4.100;2023-05-07T12:17:40;8.00;;;2.30;;
52268;SDS011;38224;50.950;4.100;2023-05-07T12:20:06;4.88;;;2.45;;
52268;SDS011;38224;50.950;4.100;2023-05-07T12:22:32;5.05;;;2.25;;
52268;SDS011;38224;50.950;4.100;2023-05-07T12:24:57;4.40;;;2.58;;
52268;SDS011;38224;50.950;4.100;2023-05-07T12:27:23;4.70;;;2.95;;
52268;SDS011;38224;50.950;4.100;2023-05-07T12:29:49;4.78;;;3.05;;
52268;SDS011;38224;50.950;4.100;2023-05-07T12:32:15;3.72;;;2.50;;
52268;SDS011;38224;50.950;4.100;2023-05-07T12:34:41;5.68;;;2.75;;
52268;SDS011;38224;50.950;4.100;2023-05-07T12:37:06;4.85;;;3.28;;
52268;SDS011;38224;50.950;4.100;2023-05-07T12:39:31;3.87;;;2.70;;
52268;SDS011;38224;50.950;4.100;2023-05-07T12:41:58;5.07;;;2.75;;
52268;SDS011;38224;50.950;4.100;2023-05-07T12:44:34;5.63;;;3.03;;
52268;SDS011;38224;50.950;4.100;2023-05-07T12:47:02;3.63;;;2.83;;
52268;SDS011;38224;50.950;4.100;2023-05-07T12:49:28;5.35;;;2.95;;
52268;SDS011;38224;50.950;4.100;2023-05-07T12:51:53;6.50;;;3.10;;
52268;SDS011;38224;50.950;4.100;2023-05-07T12:54:31;4.68;;;3.28;;
52268;SDS011;38224;50.950;4.100;2023-05-07T12:57:03;6.93;;;3.03;;
52268;SDS011;38224;50.950;4.100;2023-05-07T12:59:33;4.80;;;3.05;;
52268;SDS011;38224;50.950;4.100;2023-05-07T13:01:58;7.00;;;4.00;;
52268;SDS011;38224;50.950;4.100;2023-05-07T13:04:24;7.17;;;3.80;;
52268;SDS011;38224;50.950;4.100;2023-05-07T13:06:49;5.95;;;3.20;;
52268;SDS011;38224;50.950;4.100;2023-05-07T13:09:15;5.70;;;3.75;;
52268;SDS011;38224;50.950;4.100;2023-05-07T13:11:40;6.50;;;3.90;;
52268;SDS011;38224;50.950;4.100;2023-05-07T13:14:05;4.43;;;3.90;;
52268;SDS011;38224;50.950;4.100;2023-05-07T13:16:31;6.10;;;4.87;;
52268;SDS011;38224;50.950;4.100;2023-05-07T13:18:56;9.25;;;4.95;;
52268;SDS011;38224;50.950;4.100;2023-05-07T13:21:21;7.33;;;4.50;;
52268;SDS011;38224;50.950;4.100;2023-05-07T13:23:46;6.10;;;4.07;;
52268;SDS011;38224;50.950;4.100;2023-05-07T13:26:12;6.80;;;4.25;;
52268;SDS011;38224;50.950;4.100;2023-05-07T13:28:37;8.73;;;4.03;;
52268;SDS011;38224;50.950;4.100;2023-05-07T13:31:02;7.93;;;3.93;;
52268;SDS011;38224;50.950;4.100;2023-05-07T13:33:28;9.23;;;4.72;;
52268;SDS011;38224;50.950;4.100;2023-05-07T13:35:53;5.00;;;4.03;;
52268;SDS011;38224;50.950;4.100;2023-05-07T13:38:18;5.13;;;3.35;;
52268;SDS011;38224;50.950;4.100;2023-05-07T13:40:47;5.60;;;3.27;;
52268;SDS011;38224;50.950;4.100;2023-05-07T13:43:13;12.20;;;4.20;;
52268;SDS011;38224;50.950;4.100;2023-05-07T13:45:38;7.25;;;3.60;;
52268;SDS011;38224;50.950;4.100;2023-05-07T13:48:03;6.37;;;3.50;;
52268;SDS011;38224;50.950;4.100;2023-05-07T13:50:29;6.80;;;3.78;;
52268;SDS011;38224;50.950;4.100;2023-05-07T13:52:54;6.07;;;4.18;;
52268;SDS011;38224;50.950;4.100;2023-05-07T13:55:20;5.47;;;3.78;;
52268;SDS011;38224;50.950;4.100;2023-05-07T13:57:46;7.25;;;3.53;;
52268;SDS011;38224;50.950;4.100;2023-05-07T14:00:12;7.32;;;3.67;;
52268;SDS011;38224;50.950;4.100;2023-05-07T14:02:37;5.95;;;3.58;;
52268;SDS011;38224;50.950;4.100;2023-05-07T14:05:03;7.00;;;3.20;;
52268;SDS011;38224;50.950;4.100;2023-05-07T14:07:28;7.38;;;3.75;;
52268;SDS011;38224;50.950;4.100;2023-05-07T14:09:54;10.50;;;4.47;;
52268;SDS011;38224;50.950;4.100;2023-05-07T14:12:19;8.60;;;4.15;;
52268;SDS011;38224;50.950;4.100;2023-05-07T14:14:44;5.45;;;3.30;;
52268;SDS011;38224;50.950;4.100;2023-05-07T14:17:10;5.10;;;3.20;;
52268;SDS011;38224;50.950;4.100;2023-05-07T14:19:35;8.25;;;3.50;;
52268;SDS011;38224;50.950;4.100;2023-05-07T14:22:01;7.37;;;4.40;;
52268;SDS011;38224;50.950;4.100;2023-05-07T14:24:26;5.67;;;3.90;;
52268;SDS011;38224;50.950;4.100;2023-05-07T14:26:51;6.38;;;3.80;;
52268;SDS011;38224;50.950;4.100;2023-05-07T14:29:17;7.40;;;3.78;;
52268;SDS011;38224;50.950;4.100;2023-05-07T14:31:44;5.15;;;3.85;;
52268;SDS011;38224;50.950;4.100;2023-05-07T14:34:10;7.72;;;3.67;;
52268;SDS011;38224;50.950;4.100;2023-05-07T14:36:35;6.67;;;3.80;;
52268;SDS011;38224;50.950;4.100;2023-05-07T14:39:00;5.57;;;3.77;;
52268;SDS011;38224;50.950;4.100;2023-05-07T14:41:25;9.73;;;4.25;;
52268;SDS011;38224;50.950;4.100;2023-05-07T14:43:51;9.73;;;4.28;;
52268;SDS011;38224;50.950;4.100;2023-05-07T14:46:19;10.65;;;6.82;;
52268;SDS011;38224;50.950;4.100;2023-05-07T14:48:45;8.10;;;4.65;;